createdAt,value
2022-12-05T00:12:38.242Z,20.23
2022-12-05T00:19:26.514Z,21.15
2022-12-05T00:26:12.349Z,20.73
2022-12-05T00:32:58.089Z,21.50
2022-12-05T00:39:46.620Z,21.42
2022-12-05T00:46:35.119Z,21.00
2022-12-05T00:53:21.103Z,20.33
2022-12-05T01:00:11.469Z,20.88
2022-12-05T01:07:00.052Z,20.08
2022-12-05T01:13:46.284Z,20.67
2022-12-05T01:20:34.337Z,20.40
2022-12-05T01:27:19.907Z,19.90
2022-12-05T01:34:08.597Z,21.30
2022-12-05T01:41:05.005Z,20.25
2022-12-05T01:47:50.832Z,19.17
2022-12-05T01:54:38.837Z,19.80
2022-12-05T02:01:26.967Z,20.73
2022-12-05T02:08:14.699Z,21.02
2022-12-05T02:15:13.559Z,19.83
2022-12-05T02:22:50.405Z,20.83
2022-12-05T02:29:57.996Z,20.87
2022-12-05T02:36:48.950Z,20.95
2022-12-05T02:43:40.110Z,20.52
2022-12-05T02:50:35.534Z,21.02
2022-12-05T02:57:22.688Z,21.20
2022-12-05T03:04:09.886Z,20.27
2022-12-05T03:11:00.030Z,20.80
2022-12-05T03:17:54.435Z,20.60
2022-12-05T03:24:44.061Z,20.00
2022-12-05T03:31:43.501Z,20.63
2022-12-05T03:38:35.639Z,20.95
2022-12-05T04:06:14.022Z,22.00
2022-12-05T04:13:17.937Z,21.90
2022-12-05T04:20:21.043Z,22.98
2022-12-05T04:27:25.907Z,24.42
2022-12-05T04:34:15.749Z,24.55
2022-12-05T04:41:06.338Z,25.00
2022-12-05T04:47:58.718Z,23.45
2022-12-05T04:54:49.251Z,24.00
2022-12-05T05:01:40.613Z,24.20
2022-12-05T05:08:30.824Z,23.40
2022-12-05T05:15:16.403Z,24.00
2022-12-05T05:22:01.920Z,23.48
2022-12-05T05:28:50.544Z,23.98
2022-12-05T05:35:39.722Z,22.80
2022-12-05T05:42:25.300Z,24.02
2022-12-05T05:49:14.192Z,22.50
2022-12-05T05:55:59.699Z,23.35
2022-12-05T06:02:45.436Z,22.20
2022-12-05T06:09:33.514Z,23.60
2022-12-05T06:16:23.792Z,23.20
2022-12-05T06:23:09.298Z,24.15
2022-12-05T06:29:57.482Z,24.10
2022-12-05T06:36:43.086Z,22.52
2022-12-05T06:43:28.581Z,22.65
2022-12-05T06:50:16.639Z,24.30
2022-12-05T06:57:02.155Z,25.15
2022-12-05T07:03:48.914Z,24.50
2022-12-05T07:10:37.096Z,25.30
2022-12-05T07:17:23.503Z,24.90
2022-12-05T07:24:09.597Z,24.10
2022-12-05T07:31:06.536Z,24.20
2022-12-05T07:37:51.962Z,23.85
2022-12-05T07:44:37.648Z,22.95
2022-12-05T07:51:25.649Z,23.27
2022-12-05T07:58:11.077Z,23.05
2022-12-05T08:04:56.435Z,22.67
2022-12-05T08:11:48.292Z,22.40
2022-12-05T08:18:36.700Z,22.60
2022-12-05T08:25:22.242Z,22.95
2022-12-05T08:32:10.269Z,23.60
2022-12-05T08:39:00.400Z,23.63
2022-12-05T08:45:53.643Z,23.52
2022-12-05T08:52:41.652Z,24.50
2022-12-05T08:59:27.104Z,23.80
2022-12-05T09:06:15.790Z,25.40
2022-12-05T09:13:03.877Z,24.77
2022-12-05T09:19:49.499Z,25.75
2022-12-05T09:26:34.992Z,25.42
2022-12-05T09:33:23.200Z,25.20
2022-12-05T09:40:12.984Z,23.67
2022-12-05T09:47:02.831Z,23.35
2022-12-05T09:53:51.123Z,21.15
2022-12-05T10:00:37.472Z,21.73
2022-12-05T10:07:30.273Z,22.92
2022-12-05T10:14:34.171Z,22.92
2022-12-05T10:21:25.860Z,23.23
2022-12-05T10:28:26.753Z,23.02
2022-12-05T10:35:24.251Z,22.67
2022-12-05T10:42:12.603Z,23.10
2022-12-05T10:48:58.517Z,24.17
2022-12-05T10:56:28.140Z,23.03
2022-12-05T11:02:56.545Z,22.73
2022-12-05T11:09:42.484Z,25.17
2022-12-05T11:16:35.568Z,23.83
2022-12-05T11:23:29.918Z,22.70
2022-12-05T11:30:23.005Z,23.25
2022-12-05T11:37:17.721Z,22.35
2022-12-05T11:44:39.833Z,23.00
2022-12-05T11:51:40.468Z,22.67
2022-12-05T11:58:59.713Z,23.10
2022-12-05T12:05:57.519Z,21.55
2022-12-05T12:12:58.362Z,21.55
2022-12-05T12:20:10.571Z,21.45
2022-12-05T12:27:08.547Z,21.77
2022-12-05T12:34:02.465Z,22.02
2022-12-05T12:40:54.356Z,23.00
2022-12-05T12:47:53.870Z,21.80
2022-12-05T12:55:04.310Z,21.25
2022-12-05T13:01:58.712Z,20.83
2022-12-05T13:08:51.683Z,21.73
2022-12-05T13:15:41.688Z,20.35
2022-12-05T13:22:32.138Z,20.60
2022-12-05T13:29:25.397Z,20.48
2022-12-05T13:36:27.688Z,21.13
2022-12-05T13:43:19.330Z,20.25
2022-12-05T13:50:13.268Z,20.88
2022-12-05T13:57:02.758Z,19.90
2022-12-05T14:04:03.599Z,18.98
2022-12-05T14:11:14.155Z,19.48
2022-12-05T14:18:08.279Z,19.83
2022-12-05T14:25:06.729Z,20.38
2022-12-05T14:32:13.835Z,20.58
2022-12-05T14:38:59.500Z,19.45
2022-12-05T14:46:02.339Z,20.77
2022-12-05T14:52:48.770Z,18.92
2022-12-05T14:59:42.172Z,20.23
2022-12-05T15:06:30.669Z,19.75
2022-12-05T15:13:20.571Z,20.42
2022-12-05T15:20:11.401Z,20.70
2022-12-05T15:27:01.710Z,19.65
2022-12-05T15:33:54.861Z,18.90
2022-12-05T15:40:40.659Z,18.48
2022-12-05T15:47:29.845Z,17.67
2022-12-05T15:54:22.616Z,15.57
2022-12-05T16:01:19.199Z,15.20
2022-12-05T16:08:08.710Z,13.60
2022-12-05T16:15:00.075Z,11.25
2022-12-05T16:21:50.909Z,11.70
2022-12-05T16:28:39.260Z,10.20
2022-12-05T16:35:42.578Z,10.50
2022-12-05T16:42:29.596Z,9.38
2022-12-05T16:56:34.961Z,8.10
2022-12-05T17:03:36.456Z,8.40
2022-12-05T17:10:25.808Z,8.40
2022-12-05T17:17:18.105Z,8.25
2022-12-05T17:24:04.268Z,7.80
2022-12-05T17:30:52.823Z,7.63
2022-12-05T17:37:38.300Z,6.93
2022-12-05T17:44:23.703Z,7.38
2022-12-05T17:51:14.596Z,7.43
2022-12-05T17:58:00.263Z,7.53
2022-12-05T18:04:45.922Z,7.80
2022-12-05T18:11:34.059Z,7.60
2022-12-05T18:18:21.611Z,7.43
2022-12-05T18:25:08.788Z,7.88
2022-12-05T18:31:56.937Z,8.05
2022-12-05T18:38:43.387Z,42.03
2022-12-05T18:45:29.070Z,8.38
2022-12-05T18:52:17.156Z,8.30
2022-12-05T18:59:05.598Z,8.15
2022-12-05T19:05:50.968Z,8.60
2022-12-05T19:12:39.338Z,8.55
2022-12-05T19:19:25.698Z,8.40
2022-12-05T19:26:13.400Z,9.35
2022-12-05T19:33:01.985Z,8.98
2022-12-05T19:39:48.133Z,9.55
2022-12-05T19:46:34.598Z,9.50
2022-12-05T19:53:22.580Z,9.18
2022-12-05T20:00:11.491Z,8.80
2022-12-05T20:06:59.929Z,9.02
2022-12-05T20:13:48.801Z,9.50
2022-12-05T20:20:34.245Z,9.38
2022-12-05T20:27:19.674Z,9.18
2022-12-05T20:34:08.420Z,9.40
2022-12-05T20:40:53.877Z,8.75
2022-12-05T20:47:39.516Z,9.35
2022-12-05T20:54:27.794Z,9.43
2022-12-05T21:01:16.372Z,9.18
2022-12-05T21:08:01.917Z,9.13
2022-12-05T21:14:50.791Z,9.18
2022-12-05T21:21:36.318Z,8.85
2022-12-05T21:28:21.906Z,8.50
2022-12-05T21:35:11.413Z,8.40
2022-12-05T21:41:58.204Z,9.05
2022-12-05T21:48:43.577Z,8.77
2022-12-05T21:55:31.478Z,8.10
2022-12-05T22:02:17.069Z,8.82
2022-12-05T22:09:02.795Z,8.57
2022-12-05T22:15:51.274Z,8.50
2022-12-05T22:22:38.955Z,8.32
2022-12-05T22:29:24.378Z,7.57
2022-12-05T22:36:15.166Z,8.15
2022-12-05T22:43:00.575Z,8.25
2022-12-05T22:49:46.250Z,8.30
2022-12-05T22:56:34.743Z,8.52
2022-12-05T23:03:20.288Z,8.23
2022-12-05T23:10:07.203Z,8.90
2022-12-05T23:23:40.902Z,8.45
2022-12-05T23:30:26.375Z,8.70
2022-12-05T23:37:14.364Z,8.43
2022-12-05T23:44:02.024Z,8.50
2022-12-05T23:50:47.376Z,8.55
2022-12-05T23:57:35.681Z,8.68
